createdAt,value
2016-04-23T00:00:35.747Z,1008.36
2016-04-23T00:01:35.735Z,1008.42
2016-04-23T00:02:35.722Z,1008.39
2016-04-23T00:03:36.490Z,1008.41
2016-04-23T00:04:35.727Z,1008.41
2016-04-23T00:05:35.715Z,1008.38
2016-04-23T00:06:35.718Z,1008.35
2016-04-23T00:07:35.688Z,1008.35
2016-04-23T00:08:35.691Z,1008.36
2016-04-23T00:09:35.678Z,1008.32
2016-04-23T00:10:35.682Z,1008.32
2016-04-23T00:11:35.668Z,1008.28
2016-04-23T00:12:35.671Z,1008.28
2016-04-23T00:13:35.657Z,1008.28
2016-04-23T00:14:35.645Z,1008.26
2016-04-23T00:15:35.648Z,1008.32
2016-04-23T00:16:35.634Z,1008.26
2016-04-23T00:17:35.637Z,1008.26
2016-04-23T00:18:36.218Z,1008.24
2016-04-23T00:19:35.628Z,1008.23
2016-04-23T00:20:35.958Z,1008.18
2016-04-23T00:21:36.008Z,1008.23
2016-04-23T00:22:35.604Z,1008.2
2016-04-23T00:23:35.591Z,1008.23
2016-04-23T00:24:35.578Z,1008.2
2016-04-23T00:25:35.581Z,1008.21
2016-04-23T00:26:35.567Z,1008.18
2016-04-23T00:27:35.570Z,1008.14
2016-04-23T00:28:35.558Z,1008.15
2016-04-23T00:29:35.544Z,1008.17
2016-04-23T00:30:35.547Z,1008.14
2016-04-23T00:31:35.535Z,1008.11
2016-04-23T00:32:35.538Z,1008.09
2016-04-23T00:33:35.524Z,1008.14
2016-04-23T00:34:35.527Z,1008.12
2016-04-23T00:35:35.514Z,1008.08
2016-04-23T00:36:35.501Z,1008.09
2016-04-23T00:37:35.504Z,1008.08
2016-04-23T00:38:35.491Z,1008.07
2016-04-23T00:39:35.493Z,1008.09
2016-04-23T00:40:35.480Z,1008.08
2016-04-23T00:41:35.468Z,1008.07
2016-04-23T00:42:35.454Z,1008.04
2016-04-23T00:43:35.457Z,1008.05
2016-04-23T00:44:35.445Z,1008.02
2016-04-23T00:45:35.448Z,1008.01
2016-04-23T00:46:35.434Z,1008
2016-04-23T00:47:35.421Z,1008
2016-04-23T00:48:35.424Z,1007.98
2016-04-23T00:49:35.411Z,1007.98
2016-04-23T00:50:35.414Z,1007.98
2016-04-23T00:51:35.400Z,1007.97
2016-04-23T00:52:35.404Z,1007.95
2016-04-23T00:53:35.390Z,1007.95
2016-04-23T00:54:35.378Z,1007.94
2016-04-23T00:55:35.380Z,1007.96
2016-04-23T00:56:35.367Z,1007.92
2016-04-23T00:57:35.355Z,1007.94
2016-04-23T00:58:35.357Z,1007.95
2016-04-23T00:59:35.344Z,1007.93
2016-04-23T01:00:35.347Z,1007.92
2016-04-23T01:01:35.334Z,1007.92
2016-04-23T01:02:35.321Z,1007.9
2016-04-23T01:03:35.307Z,1007.88
2016-04-23T01:04:35.310Z,1007.89
2016-04-23T01:05:35.298Z,1007.85
2016-04-23T01:06:35.300Z,1007.84
2016-04-23T01:07:35.287Z,1007.9
2016-04-23T01:08:35.275Z,1007.87
2016-04-23T01:11:35.251Z,1007.88
2016-04-23T01:12:35.255Z,1007.89
2016-04-23T01:13:35.241Z,1007.84
2016-04-23T01:14:35.415Z,1007.88
2016-04-23T01:15:35.231Z,1007.84
2016-04-23T01:16:35.217Z,1007.84
2016-04-23T01:17:35.221Z,1007.82
2016-04-23T01:18:35.207Z,1007.8
2016-04-23T01:19:37.054Z,1007.82
2016-04-23T01:20:35.198Z,1007.82
2016-04-23T01:21:35.373Z,1007.8
2016-04-23T01:22:35.172Z,1007.78
2016-04-23T01:23:35.955Z,1007.77
2016-04-23T01:24:35.162Z,1007.74
2016-04-23T01:25:35.148Z,1007.77
2016-04-23T01:26:35.151Z,1007.74
2016-04-23T01:27:35.138Z,1007.73
2016-04-23T01:28:35.125Z,1007.76
2016-04-23T01:29:35.128Z,1007.76
2016-04-23T01:30:35.114Z,1007.73
2016-04-23T01:31:35.102Z,1007.76
2016-04-23T01:32:35.105Z,1007.73
2016-04-23T01:33:35.092Z,1007.77
2016-04-23T01:34:35.094Z,1007.77
2016-04-23T01:35:35.082Z,1007.79
2016-04-23T01:36:35.069Z,1007.71
2016-04-23T01:37:35.071Z,1007.74
2016-04-23T01:38:35.152Z,1007.75
2016-04-23T01:39:35.046Z,1007.73
2016-04-23T01:40:35.032Z,1007.74
2016-04-23T01:41:35.035Z,1007.72
2016-04-23T01:42:35.022Z,1007.73
2016-04-23T01:43:35.024Z,1007.69
2016-04-23T01:44:35.027Z,1007.7
2016-04-23T01:45:34.999Z,1007.69
2016-04-23T01:46:35.002Z,1007.68
2016-04-23T01:47:35.239Z,1007.7
2016-04-23T01:48:34.976Z,1007.69
2016-04-23T01:49:35.526Z,1007.66
2016-04-23T01:50:34.965Z,1007.68
2016-04-23T01:51:34.953Z,1007.68
2016-04-23T01:52:34.955Z,1007.67
2016-04-23T01:53:34.943Z,1007.64
2016-04-23T01:54:34.929Z,1007.67
2016-04-23T01:55:34.931Z,1007.69
2016-04-23T01:56:34.920Z,1007.65
2016-04-23T01:57:34.922Z,1007.66
2016-04-23T01:58:34.909Z,1007.63
2016-04-23T01:59:34.911Z,1007.62
2016-04-23T02:00:34.900Z,1007.57
2016-04-23T02:01:34.886Z,1007.62
2016-04-23T02:02:34.888Z,1007.61
2016-04-23T02:03:34.875Z,1007.6
2016-04-23T02:04:34.862Z,1007.56
2016-04-23T02:05:34.881Z,1007.6
2016-04-23T02:06:34.852Z,1007.55
2016-04-23T02:07:34.839Z,1007.55
2016-04-23T02:08:34.827Z,1007.54
2016-04-23T02:09:34.830Z,1007.52
2016-04-23T02:10:34.816Z,1007.5
2016-04-23T02:11:34.818Z,1007.52
2016-04-23T02:12:34.822Z,1007.52
2016-04-23T02:13:34.809Z,1007.47
2016-04-23T02:14:34.796Z,1007.5
2016-04-23T02:15:34.782Z,1007.48
2016-04-23T02:16:34.785Z,1007.46
2016-04-23T02:17:34.773Z,1007.44
2016-04-23T02:18:34.759Z,1007.44
2016-04-23T02:19:34.762Z,1007.43
2016-04-23T02:20:34.749Z,1007.46
2016-04-23T02:21:34.752Z,1007.4
2016-04-23T02:22:34.749Z,1007.42
2016-04-23T02:23:34.736Z,1007.47
2016-04-23T02:24:34.723Z,1007.41
2016-04-23T02:25:34.710Z,1007.37
2016-04-23T02:26:34.713Z,1007.41
2016-04-23T02:27:34.699Z,1007.39
2016-04-23T02:28:34.687Z,1007.37
2016-04-23T02:29:34.689Z,1007.41
2016-04-23T02:30:35.271Z,1007.38
2016-04-23T02:31:34.680Z,1007.32
2016-04-23T02:32:34.666Z,1007.36
2016-04-23T02:33:34.669Z,1007.33
2016-04-23T02:34:34.656Z,1007.32
2016-04-23T02:35:34.846Z,1007.32
2016-04-23T02:36:34.646Z,1007.31
2016-04-23T02:37:34.633Z,1007.28
2016-04-23T02:38:34.620Z,1007.29
2016-04-23T02:39:34.623Z,1007.29
2016-04-23T02:40:34.626Z,1007.28
2016-04-23T02:41:34.612Z,1007.27
2016-04-23T02:42:34.599Z,1007.24
2016-04-23T02:43:34.587Z,1007.24
2016-04-23T02:44:34.590Z,1007.21
2016-04-23T02:45:34.576Z,1007.26
2016-04-23T02:46:34.579Z,1007.25
2016-04-23T02:47:34.567Z,1007.26
2016-04-23T02:48:34.553Z,1007.25
2016-04-23T02:49:34.540Z,1007.24
2016-04-23T02:50:34.542Z,1007.23
2016-04-23T02:51:34.531Z,1007.25
2016-04-23T02:52:34.533Z,1007.25
2016-04-23T02:53:34.519Z,1007.22
2016-04-23T02:54:34.507Z,1007.18
2016-04-23T02:55:34.509Z,1007.21
2016-04-23T02:56:34.497Z,1007.18
2016-04-23T02:57:34.499Z,1007.15
2016-04-23T02:58:34.800Z,1007.13
2016-04-23T02:59:34.489Z,1007.12
2016-04-23T03:00:34.476Z,1007.08
2016-04-23T03:01:34.463Z,1007.03
2016-04-23T03:02:34.466Z,1007.12
2016-04-23T03:03:34.656Z,1007.1
2016-04-23T03:04:34.440Z,1007.08
2016-04-23T03:05:35.146Z,1007.09
2016-04-23T03:06:34.430Z,1007.04
2016-04-23T03:07:34.432Z,1007.07
2016-04-23T03:08:34.419Z,1007.02
2016-04-23T03:09:35.110Z,1007.07
2016-04-23T03:10:34.410Z,1007.02
2016-04-23T03:11:34.396Z,1007.05
2016-04-23T03:12:34.383Z,1007.05
2016-04-23T03:13:34.387Z,1007.04
2016-04-23T03:14:34.373Z,1007.06
2016-04-23T03:15:34.375Z,1007
2016-04-23T03:16:34.363Z,1007.01
2016-04-23T03:17:34.350Z,1007.03
2016-04-23T03:18:34.353Z,1007.02
2016-04-23T03:19:34.340Z,1007.01
2016-04-23T03:20:34.343Z,1007
2016-04-23T03:21:34.329Z,1007.02
2016-04-23T03:22:34.332Z,1007.01
2016-04-23T03:23:34.319Z,1006.99
2016-04-23T03:24:34.306Z,1007
2016-04-23T03:25:34.308Z,1007
2016-04-23T03:26:34.296Z,1007
2016-04-23T03:27:34.300Z,1007
2016-04-23T03:28:34.270Z,1007.03
2016-04-23T03:29:34.273Z,1007.02
2016-04-23T03:30:34.260Z,1007
2016-04-23T03:31:34.263Z,1007.03
2016-04-23T03:32:34.250Z,1007.03
2016-04-23T03:33:34.236Z,1006.97
2016-04-23T03:34:34.239Z,1007
2016-04-23T03:35:34.227Z,1007.01
2016-04-23T03:36:34.230Z,1006.99
2016-04-23T03:37:34.216Z,1007.03
2016-04-23T03:38:34.219Z,1007
2016-04-23T03:39:34.207Z,1007
2016-04-23T03:40:34.193Z,1007
2016-04-23T03:41:34.195Z,1007.03
2016-04-23T03:42:34.182Z,1007
2016-04-23T03:43:34.171Z,1007.03
2016-04-23T03:44:34.173Z,1007.05
2016-04-23T03:45:34.176Z,1007.06
2016-04-23T03:46:34.146Z,1007.03
2016-04-23T03:47:34.149Z,1007.06
2016-04-23T03:48:34.152Z,1007
2016-04-23T03:49:34.139Z,1007.02
2016-04-23T03:50:34.439Z,1006.96
2016-04-23T03:51:34.129Z,1006.99
2016-04-23T03:52:34.117Z,1007
2016-04-23T03:53:34.103Z,1006.97
2016-04-23T03:54:34.090Z,1006.96
2016-04-23T03:55:34.096Z,1006.98
2016-04-23T03:56:35.255Z,1006.92
2016-04-23T03:57:35.821Z,1006.94
2016-04-23T03:58:34.073Z,1006.92
2016-04-23T03:59:34.061Z,1006.94
2016-04-23T04:00:34.062Z,1006.94
2016-04-23T04:01:34.051Z,1006.9
2016-04-23T04:02:34.054Z,1006.92
2016-04-23T04:03:34.040Z,1006.91
2016-04-23T04:04:34.026Z,1006.91
2016-04-23T04:05:34.029Z,1006.9
2016-04-23T04:06:34.017Z,1006.91
2016-04-23T04:07:34.004Z,1006.9
2016-04-23T04:08:33.992Z,1006.9
2016-04-23T04:09:34.009Z,1006.88
2016-04-23T04:10:33.980Z,1006.9
2016-04-23T04:11:33.984Z,1006.86
2016-04-23T04:12:33.970Z,1006.86
2016-04-23T04:13:33.973Z,1006.88
2016-04-23T04:14:33.961Z,1006.86
2016-04-23T04:16:34.341Z,1006.85
2016-04-23T04:17:33.937Z,1006.85
2016-04-23T04:18:33.939Z,1006.87
2016-04-23T04:19:33.927Z,1006.87
2016-04-23T04:20:33.913Z,1006.87
2016-04-23T04:21:33.916Z,1006.87
2016-04-23T04:22:33.904Z,1006.85
2016-04-23T04:23:33.907Z,1006.88
2016-04-23T04:24:33.894Z,1006.87
2016-04-23T04:26:33.883Z,1006.87
2016-04-23T04:27:33.963Z,1006.88
2016-04-23T04:28:33.873Z,1006.88
2016-04-23T04:29:33.860Z,1006.86
2016-04-23T04:30:33.847Z,1006.89
2016-04-23T04:31:33.835Z,1006.86
2016-04-23T04:32:33.837Z,1006.86
2016-04-23T04:33:33.824Z,1006.86
2016-04-23T04:34:33.826Z,1006.89
2016-04-23T04:35:33.814Z,1006.87
2016-04-23T04:36:33.816Z,1006.88
2016-04-23T04:37:33.803Z,1006.88
2016-04-23T04:38:33.790Z,1006.9
2016-04-23T04:39:33.793Z,1006.91
2016-04-23T04:40:33.781Z,1006.91
2016-04-23T04:41:33.783Z,1006.92
2016-04-23T04:42:33.770Z,1006.91
2016-04-23T04:43:33.756Z,1006.93
2016-04-23T04:44:33.759Z,1006.86
2016-04-23T04:45:33.747Z,1006.86
2016-04-23T04:46:33.750Z,1006.86
2016-04-23T04:47:33.737Z,1006.86
2016-04-23T04:48:33.724Z,1006.85
2016-04-23T04:49:33.727Z,1006.87
2016-04-23T04:50:33.713Z,1006.86
2016-04-23T04:51:33.716Z,1006.85
2016-04-23T04:52:33.702Z,1006.84
2016-04-23T04:53:33.705Z,1006.85
2016-04-23T04:54:33.693Z,1006.85
2016-04-23T04:55:33.696Z,1006.82
2016-04-23T04:56:33.699Z,1006.82
2016-04-23T04:57:33.669Z,1006.81
2016-04-23T04:58:33.672Z,1006.8
2016-04-23T04:59:33.659Z,1006.81
2016-04-23T05:00:33.662Z,1006.79
2016-04-23T05:01:33.649Z,1006.81
2016-04-23T05:02:33.652Z,1006.82
2016-04-23T05:03:33.640Z,1006.84
2016-04-23T05:04:33.626Z,1006.83
2016-04-23T05:05:34.785Z,1006.82
2016-04-23T05:06:33.615Z,1006.81
2016-04-23T05:07:33.619Z,1006.8
2016-04-23T05:08:33.605Z,1006.79
2016-04-23T05:09:33.811Z,1006.79
2016-04-23T05:10:33.595Z,1006.76
2016-04-23T05:11:34.207Z,1006.76
2016-04-23T05:12:33.584Z,1006.81
2016-04-23T05:13:33.587Z,1006.81
2016-04-23T05:14:33.575Z,1006.82
2016-04-23T05:15:33.578Z,1006.82
2016-04-23T05:16:33.564Z,1006.85
2016-04-23T05:17:33.552Z,1006.84
2016-04-23T05:18:33.555Z,1006.87
2016-04-23T05:19:33.558Z,1006.89
2016-04-23T05:20:33.544Z,1006.89
2016-04-23T05:21:33.531Z,1006.96
2016-04-23T05:22:33.533Z,1007.04
2016-04-23T05:23:33.536Z,1007
2016-04-23T05:24:33.523Z,1007.03
2016-04-23T05:25:33.526Z,1007.06
2016-04-23T05:26:33.513Z,1007.06
2016-04-23T05:27:33.516Z,1007.05
2016-04-23T05:28:33.503Z,1007.04
2016-04-23T05:29:33.505Z,1007.02
2016-04-23T05:30:33.493Z,1006.94
2016-04-23T05:31:33.479Z,1006.94
2016-04-23T05:32:33.482Z,1006.94
2016-04-23T05:33:33.470Z,1006.94
2016-04-23T05:34:33.473Z,1006.96
2016-04-23T05:35:33.475Z,1006.94
2016-04-23T05:36:33.915Z,1006.97
2016-04-23T05:37:33.465Z,1006.98
2016-04-23T05:38:33.451Z,1006.98
2016-04-23T05:39:33.454Z,1007.01
2016-04-23T05:40:33.504Z,1007.05
2016-04-23T05:41:33.445Z,1007.04
2016-04-23T05:42:33.431Z,1007.03
2016-04-23T05:43:33.434Z,1007.09
2016-04-23T05:44:33.578Z,1007.09
2016-04-23T05:45:33.439Z,1007.07
2016-04-23T05:46:33.442Z,1007.13
2016-04-23T05:47:33.413Z,1007.16
2016-04-23T05:48:33.417Z,1007.21
2016-04-23T05:49:33.419Z,1007.13
2016-04-23T05:50:33.562Z,1007.13
2016-04-23T05:51:33.409Z,1007.15
2016-04-23T05:52:33.396Z,1007.16
2016-04-23T05:53:33.399Z,1007.15
2016-04-23T05:54:33.385Z,1007.18
2016-04-23T05:55:33.388Z,1007.22
2016-04-23T05:56:33.391Z,1007.32
2016-04-23T05:57:33.377Z,1007.43
2016-04-23T05:58:33.380Z,1007.54
2016-04-23T05:59:33.368Z,1007.61
2016-04-23T06:00:33.386Z,1007.68
2016-04-23T06:01:33.373Z,1007.68
2016-04-23T06:02:33.376Z,1007.68
2016-04-23T06:03:33.362Z,1007.57
2016-04-23T06:04:33.366Z,1007.44
2016-04-23T06:05:33.352Z,1007.27
2016-04-23T06:06:33.355Z,1007.29
2016-04-23T06:07:33.358Z,1007.27
2016-04-23T06:08:33.360Z,1007.4
2016-04-23T06:09:33.363Z,1007.44
2016-04-23T06:10:33.350Z,1007.38
2016-04-23T06:11:33.353Z,1007.45
2016-04-23T06:12:33.356Z,1007.38
2016-04-23T06:13:33.358Z,1007.34
2016-04-23T06:14:33.361Z,1007.38
2016-04-23T06:15:33.364Z,1007.37
2016-04-23T06:16:33.351Z,1007.35
2016-04-23T06:17:33.353Z,1007.29
2016-04-23T06:18:33.356Z,1007.27
2016-04-23T06:19:33.358Z,1007.28
2016-04-23T06:20:33.362Z,1007.24
2016-04-23T06:21:33.365Z,1007.17
2016-04-23T06:22:33.367Z,1007.15
2016-04-23T06:23:33.355Z,1007.11
2016-04-23T06:24:33.372Z,1007.05
2016-04-23T06:25:34.000Z,1007.04
2016-04-23T06:26:33.362Z,1007.08
2016-04-23T06:27:33.365Z,1007.08
2016-04-23T06:28:33.368Z,1007.1
2016-04-23T06:29:33.636Z,1007.09
2016-04-23T06:30:33.373Z,1007.21
2016-04-23T06:31:33.376Z,1007.17
2016-04-23T06:32:33.379Z,1007.2
2016-04-23T06:33:33.381Z,1007.24
2016-04-23T06:34:33.384Z,1007.26
2016-04-23T06:35:33.370Z,1007.27
2016-04-23T06:36:33.374Z,1007.31
2016-04-23T06:37:33.377Z,1007.32
2016-04-23T06:38:33.535Z,1007.4
2016-04-23T06:39:33.382Z,1007.41
2016-04-23T06:40:33.384Z,1007.41
2016-04-23T06:41:33.387Z,1007.37
2016-04-23T06:42:33.373Z,1007.28
2016-04-23T06:43:33.376Z,1007.32
2016-04-23T06:44:33.379Z,1007.39
2016-04-23T06:45:33.382Z,1007.47
2016-04-23T06:46:33.384Z,1007.32
2016-04-23T06:47:33.387Z,1007.38
2016-04-23T06:48:33.390Z,1007.42
2016-04-23T06:49:33.392Z,1007.45
2016-04-23T06:50:33.395Z,1007.42
2016-04-23T06:51:33.397Z,1007.39
2016-04-23T06:52:33.995Z,1007.5
2016-04-23T06:53:33.404Z,1007.47
2016-04-23T06:54:33.406Z,1007.35
2016-04-23T06:55:33.394Z,1007.37
2016-04-23T06:56:33.396Z,1007.15
2016-04-23T06:57:33.399Z,1007.12
2016-04-23T06:58:33.417Z,1007.12
2016-04-23T06:59:33.404Z,1007.16
2016-04-23T07:00:33.407Z,1007.13
2016-04-23T07:01:33.410Z,1007.08
2016-04-23T07:02:33.428Z,1007.12
2016-04-23T07:03:33.415Z,1007.14
2016-04-23T07:04:33.418Z,1007.14
2016-04-23T07:05:34.217Z,1007.1
2016-04-23T07:06:33.423Z,1007.14
2016-04-23T07:07:33.612Z,1007.11
2016-04-23T07:08:33.476Z,1007.23
2016-04-23T07:09:33.416Z,1007.24
2016-04-23T07:10:33.418Z,1007.43
2016-04-23T07:11:33.437Z,1007.48
2016-04-23T07:12:33.423Z,1007.27
2016-04-23T07:13:33.442Z,1007.42
2016-04-23T07:14:33.429Z,1007.5
2016-04-23T07:15:33.431Z,1007.5
2016-04-23T07:16:33.434Z,1007.48
2016-04-23T07:17:33.437Z,1007.45
2016-04-23T07:18:33.440Z,1007.37
2016-04-23T07:19:33.442Z,1007.39
2016-04-23T07:20:33.445Z,1007.42
2016-04-23T07:21:33.447Z,1007.52
2016-04-23T07:22:33.450Z,1007.54
2016-04-23T07:23:33.453Z,1007.72
2016-04-23T07:24:33.472Z,1007.42
2016-04-23T07:25:33.474Z,1007.35
2016-04-23T07:26:33.461Z,1007.37
2016-04-23T07:27:33.463Z,1007.32
2016-04-23T07:28:33.466Z,1007.32
2016-04-23T07:29:33.469Z,1007.39
2016-04-23T07:30:33.472Z,1007.5
2016-04-23T07:31:33.474Z,1007.68
2016-04-23T07:32:33.477Z,1007.37
2016-04-23T07:33:33.480Z,1007.4
2016-04-23T07:34:33.482Z,1007.3
2016-04-23T07:35:33.501Z,1007.28
2016-04-23T07:36:33.488Z,1007.21
2016-04-23T07:37:33.507Z,1007.2
2016-04-23T07:38:33.509Z,1007.18
2016-04-23T07:39:33.512Z,1007.19
2016-04-23T07:40:33.514Z,1007.31
2016-04-23T07:41:33.549Z,1007.25
2016-04-23T07:42:33.596Z,1007.26
2016-04-23T07:44:33.690Z,1007.13
2016-04-23T07:45:35.079Z,1007.18
2016-04-23T07:46:34.854Z,1006.98
2016-04-23T07:47:33.795Z,1006.98
2016-04-23T07:48:33.814Z,1006.94
2016-04-23T07:49:33.833Z,1006.98
2016-04-23T07:50:33.868Z,1006.96
2016-04-23T07:51:33.879Z,1007.01
2016-04-23T07:52:34.528Z,1007.04
2016-04-23T07:53:33.896Z,1007.01
2016-04-23T07:54:33.904Z,1007.05
2016-04-23T07:55:33.928Z,1007.01
2016-04-23T07:56:33.934Z,1007.11
2016-04-23T07:57:33.939Z,1007.09
2016-04-23T07:58:33.944Z,1007.13
2016-04-23T07:59:33.948Z,1007.12
2016-04-23T08:00:33.953Z,1007.16
2016-04-23T08:01:33.956Z,1007.16
2016-04-23T08:02:33.974Z,1007.17
2016-04-23T08:03:34.010Z,1007.11
2016-04-23T08:04:33.967Z,1007.05
2016-04-23T08:05:33.986Z,1007.01
2016-04-23T08:06:34.004Z,1007.03
2016-04-23T08:07:33.992Z,1007.01
2016-04-23T08:08:34.011Z,1007
2016-04-23T08:09:34.013Z,1006.99
2016-04-23T08:10:34.017Z,1007.01
2016-04-23T08:11:34.019Z,1006.93
2016-04-23T08:12:34.725Z,1006.93
2016-04-23T08:13:34.478Z,1006.91
2016-04-23T08:14:34.434Z,1006.86
2016-04-23T08:15:34.030Z,1006.88
2016-04-23T08:16:34.033Z,1006.91
2016-04-23T08:17:34.035Z,1006.9
2016-04-23T08:18:34.039Z,1006.98
2016-04-23T08:19:34.041Z,1006.95
2016-04-23T08:20:34.043Z,1006.92
2016-04-23T08:21:34.061Z,1006.94
2016-04-23T08:22:34.049Z,1006.95
2016-04-23T08:23:34.052Z,1006.94
2016-04-23T08:24:34.054Z,1006.9
2016-04-23T08:25:34.058Z,1006.92
2016-04-23T08:26:34.060Z,1006.94
2016-04-23T08:27:34.078Z,1006.91
2016-04-23T08:28:34.065Z,1006.86
2016-04-23T08:29:34.073Z,1006.84
2016-04-23T08:30:34.075Z,1006.94
2016-04-23T08:31:34.079Z,1006.93
2016-04-23T08:32:34.081Z,1006.96
2016-04-23T08:33:34.084Z,1006.95
2016-04-23T08:34:34.086Z,1006.92
2016-04-23T08:35:34.089Z,1006.95
2016-04-23T08:36:34.092Z,1006.94
2016-04-23T08:37:34.094Z,1006.91
2016-04-23T08:38:34.098Z,1006.93
2016-04-23T08:39:34.100Z,1006.94
2016-04-23T08:40:34.102Z,1006.95
2016-04-23T08:41:34.106Z,1006.94
2016-04-23T08:42:34.108Z,1006.94
2016-04-23T08:43:34.110Z,1006.9
2016-04-23T08:44:34.114Z,1006.88
2016-04-23T08:45:34.116Z,1006.96
2016-04-23T08:46:34.118Z,1007.02
2016-04-23T08:47:34.121Z,1007.01
2016-04-23T08:48:34.125Z,1007.05
2016-04-23T08:49:34.127Z,1007.09
2016-04-23T08:50:34.129Z,1007.13
2016-04-23T08:51:34.133Z,1007.18
2016-04-23T08:52:34.135Z,1007.11
2016-04-23T08:53:34.137Z,1006.99
2016-04-23T08:54:34.140Z,1007.07
2016-04-23T08:55:34.143Z,1007.04
2016-04-23T08:56:34.146Z,1007.03
2016-04-23T08:57:34.149Z,1006.92
2016-04-23T08:58:34.151Z,1006.89
2016-04-23T08:59:34.154Z,1006.91
2016-04-23T09:00:34.156Z,1006.98
2016-04-23T09:01:34.143Z,1007
2016-04-23T09:02:35.115Z,1006.99
2016-04-23T09:04:34.167Z,1006.99
2016-04-23T09:05:34.170Z,1007.01
2016-04-23T09:06:34.345Z,1007.02
2016-04-23T09:07:34.159Z,1007
2016-04-23T09:08:34.178Z,1007.01
2016-04-23T09:09:34.164Z,1007.01
2016-04-23T09:10:34.183Z,1007.05
2016-04-23T09:11:34.186Z,1007.02
2016-04-23T09:12:34.189Z,1006.99
2016-04-23T09:13:35.613Z,1007.01
2016-04-23T09:14:34.194Z,1006.97
2016-04-23T09:15:34.197Z,1006.97
2016-04-23T09:16:34.199Z,1006.9
2016-04-23T09:17:34.202Z,1006.86
2016-04-23T09:18:34.205Z,1006.86
2016-04-23T09:19:34.208Z,1006.77
2016-04-23T09:20:34.210Z,1006.76
2016-04-23T09:21:34.213Z,1006.71
2016-04-23T09:22:34.215Z,1006.67
2016-04-23T09:23:34.218Z,1006.56
2016-04-23T09:24:34.221Z,1006.54
2016-04-23T09:25:34.224Z,1006.6
2016-04-23T09:26:34.227Z,1006.77
2016-04-23T09:27:34.229Z,1006.82
2016-04-23T09:28:34.231Z,1006.85
2016-04-23T09:29:34.250Z,1006.94
2016-04-23T09:30:34.252Z,1006.85
2016-04-23T09:31:34.755Z,1006.78
2016-04-23T09:32:34.243Z,1006.78
2016-04-23T09:33:34.245Z,1006.83
2016-04-23T09:34:34.279Z,1006.83
2016-04-23T09:35:34.251Z,1006.83
2016-04-23T09:36:34.253Z,1006.8
2016-04-23T09:37:34.271Z,1006.69
2016-04-23T09:38:34.258Z,1006.59
2016-04-23T09:39:34.308Z,1006.63
2016-04-23T09:40:35.389Z,1006.59
2016-04-23T09:41:35.282Z,1006.5
2016-04-23T09:42:34.300Z,1006.58
2016-04-23T09:43:34.334Z,1006.64
2016-04-23T09:44:34.290Z,1006.67
2016-04-23T09:45:34.292Z,1006.7
2016-04-23T09:46:34.280Z,1006.7
2016-04-23T09:47:34.298Z,1006.72
2016-04-23T09:48:34.301Z,1006.74
2016-04-23T09:49:34.304Z,1006.75
2016-04-23T09:50:34.306Z,1006.79
2016-04-23T09:51:34.309Z,1006.66
2016-04-23T09:52:34.311Z,1006.67
2016-04-23T09:53:34.314Z,1006.7
2016-04-23T09:54:34.317Z,1006.76
2016-04-23T09:55:34.319Z,1006.75
2016-04-23T09:56:34.322Z,1006.7
2016-04-23T09:57:34.325Z,1006.67
2016-04-23T09:58:34.327Z,1006.68
2016-04-23T09:59:34.330Z,1006.62
2016-04-23T10:00:34.333Z,1006.68
2016-04-23T10:01:34.336Z,1006.59
2016-04-23T10:02:34.339Z,1006.6
2016-04-23T10:03:34.341Z,1006.55
2016-04-23T10:04:34.343Z,1006.49
2016-04-23T10:05:34.346Z,1006.48
2016-04-23T10:06:34.365Z,1006.46
2016-04-23T10:07:34.368Z,1006.6
2016-04-23T10:08:34.354Z,1006.61
2016-04-23T10:09:34.373Z,1006.63
2016-04-23T10:10:34.360Z,1006.65
2016-04-23T10:11:34.378Z,1006.6
2016-04-23T10:12:34.381Z,1006.61
2016-04-23T10:13:34.384Z,1006.57
2016-04-23T10:14:34.386Z,1006.57
2016-04-23T10:15:36.108Z,1006.53
2016-04-23T10:16:34.392Z,1006.44
2016-04-23T10:17:34.394Z,1006.54
2016-04-23T10:18:34.397Z,1006.48
2016-04-23T10:19:34.541Z,1006.52
2016-04-23T10:20:34.403Z,1006.52
2016-04-23T10:21:34.405Z,1006.44
2016-04-23T10:22:34.532Z,1006.43
2016-04-23T10:23:34.414Z,1006.36
2016-04-23T10:24:34.417Z,1006.35
2016-04-23T10:25:34.419Z,1006.31
2016-04-23T10:26:34.500Z,1006.36
2016-04-23T10:27:34.424Z,1006.35
2016-04-23T10:28:34.427Z,1006.33
2016-04-23T10:29:34.430Z,1006.3
2016-04-23T10:30:34.432Z,1006.3
2016-04-23T10:31:35.497Z,1006.3
2016-04-23T10:32:34.438Z,1006.28
2016-04-23T10:33:34.597Z,1006.35
2016-04-23T10:34:34.943Z,1006.44
2016-04-23T10:35:34.462Z,1006.39
2016-04-23T10:36:34.448Z,1006.43
2016-04-23T10:37:34.592Z,1006.33
2016-04-23T10:38:34.454Z,1006.28
2016-04-23T10:39:34.456Z,1006.36
2016-04-23T10:40:34.459Z,1006.35
2016-04-23T10:41:34.462Z,1006.32
2016-04-23T10:42:34.465Z,1006.35
2016-04-23T10:43:34.467Z,1006.33
2016-04-23T10:44:34.470Z,1006.37
2016-04-23T10:45:34.489Z,1006.4
2016-04-23T10:46:34.476Z,1006.36
2016-04-23T10:47:34.478Z,1006.41
2016-04-23T10:48:34.481Z,1006.36
2016-04-23T10:49:35.093Z,1006.39
2016-04-23T10:50:34.503Z,1006.39
2016-04-23T10:51:34.489Z,1006.38
2016-04-23T10:52:34.492Z,1006.31
2016-04-23T10:53:34.494Z,1006.27
2016-04-23T10:54:34.498Z,1006.23
2016-04-23T10:55:34.500Z,1006.28
2016-04-23T10:56:34.502Z,1006.29
2016-04-23T10:57:34.505Z,1006.24
2016-04-23T10:58:34.524Z,1006.21
2016-04-23T10:59:34.761Z,1006.17
2016-04-23T11:00:34.529Z,1006.15
2016-04-23T11:01:34.516Z,1006.15
2016-04-23T11:02:34.534Z,1006.18
2016-04-23T11:03:34.521Z,1006.13
2016-04-23T11:04:34.790Z,1006.15
2016-04-23T11:05:34.574Z,1006.1
2016-04-23T11:06:34.530Z,1006.17
2016-04-23T11:07:34.532Z,1006.25
2016-04-23T11:08:34.535Z,1006.3
2016-04-23T11:09:34.537Z,1006.25
2016-04-23T11:10:34.540Z,1006.21
2016-04-23T11:11:34.543Z,1006.2
2016-04-23T11:12:34.546Z,1006.29
2016-04-23T11:13:34.549Z,1006.23
2016-04-23T11:14:34.550Z,1006.21
2016-04-23T11:15:34.553Z,1006.22
2016-04-23T11:16:34.556Z,1006.13
2016-04-23T11:17:34.575Z,1006.13
2016-04-23T11:18:34.562Z,1006.05
2016-04-23T11:19:35.237Z,1006
2016-04-23T11:20:34.567Z,1006.05
2016-04-23T11:21:34.586Z,1006.07
2016-04-23T11:22:34.572Z,1006.02
2016-04-23T11:23:34.575Z,1005.99
2016-04-23T11:24:34.594Z,1005.95
2016-04-23T11:25:34.596Z,1005.87
2016-04-23T11:26:34.599Z,1005.8
2016-04-23T11:27:34.602Z,1005.74
2016-04-23T11:28:34.605Z,1005.78
2016-04-23T11:29:34.591Z,1005.72
2016-04-23T11:30:34.594Z,1005.7
2016-04-23T11:31:34.597Z,1005.72
2016-04-23T11:32:34.599Z,1005.7
2016-04-23T11:33:34.602Z,1005.7
2016-04-23T11:34:34.605Z,1005.68
2016-04-23T11:35:34.608Z,1005.66
2016-04-23T11:36:34.610Z,1005.63
2016-04-23T11:37:34.629Z,1005.54
2016-04-23T11:38:34.616Z,1005.55
2016-04-23T11:39:34.618Z,1005.54
2016-04-23T11:40:34.621Z,1005.53
2016-04-23T11:41:34.623Z,1005.56
2016-04-23T11:42:34.845Z,1005.53
2016-04-23T11:43:34.629Z,1005.48
2016-04-23T11:44:34.632Z,1005.5
2016-04-23T11:45:34.635Z,1005.45
2016-04-23T11:46:34.637Z,1005.49
2016-04-23T11:47:34.639Z,1005.51
2016-04-23T11:48:34.643Z,1005.45
2016-04-23T11:49:34.645Z,1005.46
2016-04-23T11:50:34.632Z,1005.45
2016-04-23T11:51:34.651Z,1005.42
2016-04-23T11:52:34.638Z,1005.38
2016-04-23T11:53:34.640Z,1005.32
2016-04-23T11:54:34.642Z,1005.26
2016-04-23T11:55:34.645Z,1005.28
2016-04-23T11:56:34.648Z,1005.26
2016-04-23T11:57:34.651Z,1005.21
2016-04-23T11:58:34.653Z,1005.21
2016-04-23T11:59:34.656Z,1005.27
2016-04-23T12:00:34.659Z,1005.22
2016-04-23T12:01:34.662Z,1005.15
2016-04-23T12:02:34.664Z,1005.16
2016-04-23T12:03:34.652Z,1005.13
2016-04-23T12:04:34.654Z,1005.14
2016-04-23T12:05:34.657Z,1005.11
2016-04-23T12:06:34.660Z,1005.1
2016-04-23T12:07:34.647Z,1005.1
2016-04-23T12:08:34.665Z,1005.1
2016-04-23T12:09:34.652Z,1005.12
2016-04-23T12:10:35.468Z,1005.15
2016-04-23T12:11:35.063Z,1005.08
2016-04-23T12:12:34.660Z,1005.11
2016-04-23T12:13:34.709Z,1005.07
2016-04-23T12:14:34.853Z,1005.11
2016-04-23T12:15:34.652Z,1005.07